sensor_id;sensor_type;location;lat;lon;timestamp;temperature;humidity
37594;DHT22;23441;50.856;6.076;2023-05-07T00:01:36;13.50;99.90
37594;DHT22;23441;50.856;6.076;2023-05-07T00:04:02;13.40;99.90
37594;DHT22;23441;50.856;6.076;2023-05-07T00:06:29;13.30;99.90
37594;DHT22;23441;50.856;6.076;2023-05-07T00:08:56;13.30;99.90
37594;DHT22;23441;50.856;6.076;2023-05-07T00:11:22;13.30;99.90
37594;DHT22;23441;50.856;6.076;2023-05-07T00:13:48;13.30;99.90
37594;DHT22;23441;50.856;6.076;2023-05-07T00:16:14;13.30;99.90
37594;DHT22;23441;50.856;6.076;2023-05-07T00:18:39;13.30;99.90
37594;DHT22;23441;50.856;6.076;2023-05-07T00:21:05;13.30;99.90
37594;DHT22;23441;50.856;6.076;2023-05-07T00:23:31;13.30;99.90
37594;DHT22;23441;50.856;6.076;2023-05-07T00:25:56;13.30;99.90
37594;DHT22;23441;50.856;6.076;2023-05-07T00:28:22;13.30;99.90
37594;DHT22;23441;50.856;6.076;2023-05-07T00:30:47;13.20;99.90
37594;DHT22;23441;50.856;6.076;2023-05-07T00:33:13;13.20;99.90
37594;DHT22;23441;50.856;6.076;2023-05-07T00:35:39;13.30;99.90
37594;DHT22;23441;50.856;6.076;2023-05-07T00:38:04;13.20;99.90
37594;DHT22;23441;50.856;6.076;2023-05-07T00:40:30;13.30;99.90
37594;DHT22;23441;50.856;6.076;2023-05-07T00:42:55;13.30;99.90
37594;DHT22;23441;50.856;6.076;2023-05-07T00:45:26;13.30;99.90
37594;DHT22;23441;50.856;6.076;2023-05-07T00:47:59;13.30;99.90
37594;DHT22;23441;50.856;6.076;2023-05-07T00:50:29;13.30;99.90
37594;DHT22;23441;50.856;6.076;2023-05-07T00:52:55;13.30;99.90
37594;DHT22;23441;50.856;6.076;2023-05-07T00:55:22;13.20;99.90
37594;DHT22;23441;50.856;6.076;2023-05-07T00:57:49;13.10;99.90
37594;DHT22;23441;50.856;6.076;2023-05-07T01:00:16;13.10;99.90
37594;DHT22;23441;50.856;6.076;2023-05-07T01:02:42;13.10;99.90
37594;DHT22;23441;50.856;6.076;2023-05-07T01:05:11;13.10;99.90
37594;DHT22;23441;50.856;6.076;2023-05-07T01:07:39;13.10;99.90
37594;DHT22;23441;50.856;6.076;2023-05-07T01:10:06;13.10;99.90
37594;DHT22;23441;50.856;6.076;2023-05-07T01:12:33;13.20;99.90
37594;DHT22;23441;50.856;6.076;2023-05-07T01:14:59;13.20;99.90
37594;DHT22;23441;50.856;6.076;2023-05-07T01:17:26;13.20;99.90
37594;DHT22;23441;50.856;6.076;2023-05-07T01:19:51;13.20;99.90
37594;DHT22;23441;50.856;6.076;2023-05-07T01:22:28;13.20;99.90
37594;DHT22;23441;50.856;6.076;2023-05-07T01:24:55;13.20;99.90
37594;DHT22;23441;50.856;6.076;2023-05-07T01:27:21;13.10;99.90
37594;DHT22;23441;50.856;6.076;2023-05-07T01:29:47;13.10;99.90
37594;DHT22;23441;50.856;6.076;2023-05-07T01:32:13;13.10;99.90
37594;DHT22;23441;50.856;6.076;2023-05-07T01:34:39;13.10;99.90
37594;DHT22;23441;50.856;6.076;2023-05-07T01:37:05;13.10;99.90
37594;DHT22;23441;50.856;6.076;2023-05-07T01:39:32;13.10;99.90
37594;DHT22;23441;50.856;6.076;2023-05-07T01:41:58;13.10;99.90
37594;DHT22;23441;50.856;6.076;2023-05-07T01:44:25;13.10;99.90
37594;DHT22;23441;50.856;6.076;2023-05-07T01:46:51;13.10;99.90
37594;DHT22;23441;50.856;6.076;2023-05-07T01:49:18;13.10;99.90
37594;DHT22;23441;50.856;6.076;2023-05-07T01:51:44;13.00;99.90
37594;DHT22;23441;50.856;6.076;2023-05-07T01:54:09;13.00;99.90
37594;DHT22;23441;50.856;6.076;2023-05-07T01:56:35;12.90;99.90
37594;DHT22;23441;50.856;6.076;2023-05-07T01:59:01;12.90;99.90
37594;DHT22;23441;50.856;6.076;2023-05-07T02:01:27;12.80;99.90
37594;DHT22;23441;50.856;6.076;2023-05-07T02:03:53;12.70;99.90
37594;DHT22;23441;50.856;6.076;2023-05-07T02:06:19;12.60;99.90
37594;DHT22;23441;50.856;6.076;2023-05-07T02:08:45;12.60;99.90
37594;DHT22;23441;50.856;6.076;2023-05-07T02:11:11;12.60;99.90
37594;DHT22;23441;50.856;6.076;2023-05-07T02:13:37;12.60;99.90
37594;DHT22;23441;50.856;6.076;2023-05-07T02:16:03;12.60;99.90
37594;DHT22;23441;50.856;6.076;2023-05-07T02:18:29;12.60;99.90
37594;DHT22;23441;50.856;6.076;2023-05-07T02:20:54;12.50;99.90
37594;DHT22;23441;50.856;6.076;2023-05-07T02:23:20;12.50;99.90
37594;DHT22;23441;50.856;6.076;2023-05-07T02:25:46;12.50;99.90
37594;DHT22;23441;50.856;6.076;2023-05-07T02:28:12;12.50;99.90
37594;DHT22;23441;50.856;6.076;2023-05-07T02:30:38;12.50;99.90
37594;DHT22;23441;50.856;6.076;2023-05-07T02:33:04;12.40;99.90
37594;DHT22;23441;50.856;6.076;2023-05-07T02:35:29;12.40;99.90
37594;DHT22;23441;50.856;6.076;2023-05-07T02:37:55;12.40;99.90
37594;DHT22;23441;50.856;6.076;2023-05-07T02:40:21;12.40;99.90
37594;DHT22;23441;50.856;6.076;2023-05-07T02:42:47;12.40;99.90
37594;DHT22;23441;50.856;6.076;2023-05-07T02:45:12;12.40;99.90
37594;DHT22;23441;50.856;6.076;2023-05-07T02:47:38;12.40;99.90
37594;DHT22;23441;50.856;6.076;2023-05-07T02:50:04;12.50;99.90
37594;DHT22;23441;50.856;6.076;2023-05-07T02:52:30;12.50;99.90
37594;DHT22;23441;50.856;6.076;2023-05-07T02:54:55;12.50;99.90
37594;DHT22;23441;50.856;6.076;2023-05-07T02:57:21;12.60;99.90
37594;DHT22;23441;50.856;6.076;2023-05-07T02:59:47;12.60;99.90
37594;DHT22;23441;50.856;6.076;2023-05-07T03:02:12;12.60;99.90
37594;DHT22;23441;50.856;6.076;2023-05-07T03:04:39;12.70;99.90
37594;DHT22;23441;50.856;6.076;2023-05-07T03:07:05;12.70;99.90
37594;DHT22;23441;50.856;6.076;2023-05-07T03:09:30;12.70;99.90
37594;DHT22;23441;50.856;6.076;2023-05-07T03:11:56;12.70;99.90
37594;DHT22;23441;50.856;6.076;2023-05-07T03:14:22;12.70;99.90
37594;DHT22;23441;50.856;6.076;2023-05-07T03:16:49;12.70;99.90
37594;DHT22;23441;50.856;6.076;2023-05-07T03:19:14;12.70;99.90
37594;DHT22;23441;50.856;6.076;2023-05-07T03:21:40;12.60;99.90
37594;DHT22;23441;50.856;6.076;2023-05-07T03:24:06;12.60;99.90
37594;DHT22;23441;50.856;6.076;2023-05-07T03:26:31;12.60;99.90
37594;DHT22;23441;50.856;6.076;2023-05-07T03:28:57;12.60;99.90
37594;DHT22;23441;50.856;6.076;2023-05-07T03:31:22;12.50;99.90
37594;DHT22;23441;50.856;6.076;2023-05-07T03:33:56;12.50;99.90
37594;DHT22;23441;50.856;6.076;2023-05-07T03:36:23;12.40;99.90
37594;DHT22;23441;50.856;6.076;2023-05-07T03:38:49;12.30;99.90
37594;DHT22;23441;50.856;6.076;2023-05-07T03:41:15;12.30;99.90
37594;DHT22;23441;50.856;6.076;2023-05-07T03:43:41;12.30;99.90
37594;DHT22;23441;50.856;6.076;2023-05-07T03:46:06;12.20;99.90
37594;DHT22;23441;50.856;6.076;2023-05-07T03:48:32;12.20;99.90
37594;DHT22;23441;50.856;6.076;2023-05-07T03:50:58;12.10;99.90
37594;DHT22;23441;50.856;6.076;2023-05-07T03:53:24;12.10;99.90
37594;DHT22;23441;50.856;6.076;2023-05-07T03:55:50;12.10;99.90
37594;DHT22;23441;50.856;6.076;2023-05-07T03:58:15;12.10;99.90
37594;DHT22;23441;50.856;6.076;2023-05-07T04:00:41;12.10;99.90
37594;DHT22;23441;50.856;6.076;2023-05-07T04:03:07;12.10;99.90
37594;DHT22;23441;50.856;6.076;2023-05-07T04:05:33;12.20;99.90
37594;DHT22;23441;50.856;6.076;2023-05-07T04:07:59;12.20;99.90
37594;DHT22;23441;50.856;6.076;2023-05-07T04:10:25;12.30;99.90
37594;DHT22;23441;50.856;6.076;2023-05-07T04:12:50;12.30;99.90
37594;DHT22;23441;50.856;6.076;2023-05-07T04:15:16;12.40;99.90
37594;DHT22;23441;50.856;6.076;2023-05-07T04:17:42;12.40;99.90
37594;DHT22;23441;50.856;6.076;2023-05-07T04:20:15;12.40;99.90
37594;DHT22;23441;50.856;6.076;2023-05-07T04:22:41;12.50;99.90
37594;DHT22;23441;50.856;6.076;2023-05-07T04:25:07;12.50;99.90
37594;DHT22;23441;50.856;6.076;2023-05-07T04:27:34;12.50;99.90
37594;DHT22;23441;50.856;6.076;2023-05-07T04:30:00;12.50;99.90
37594;DHT22;23441;50.856;6.076;2023-05-07T04:32:26;12.50;99.90
37594;DHT22;23441;50.856;6.076;2023-05-07T04:34:52;12.60;99.90
37594;DHT22;23441;50.856;6.076;2023-05-07T04:37:17;12.60;99.90
37594;DHT22;23441;50.856;6.076;2023-05-07T04:39:43;12.60;99.90
37594;DHT22;23441;50.856;6.076;2023-05-07T04:42:08;12.70;99.90
37594;DHT22;23441;50.856;6.076;2023-05-07T04:44:35;12.70;99.90
37594;DHT22;23441;50.856;6.076;2023-05-07T04:47:02;12.70;99.90
37594;DHT22;23441;50.856;6.076;2023-05-07T04:49:28;12.70;99.90
37594;DHT22;23441;50.856;6.076;2023-05-07T04:51:54;12.80;99.90
37594;DHT22;23441;50.856;6.076;2023-05-07T04:54:19;12.90;99.90
37594;DHT22;23441;50.856;6.076;2023-05-07T04:56:45;12.90;99.90
37594;DHT22;23441;50.856;6.076;2023-05-07T04:59:11;12.90;99.90
37594;DHT22;23441;50.856;6.076;2023-05-07T05:01:36;12.90;99.90
37594;DHT22;23441;50.856;6.076;2023-05-07T05:04:02;13.00;99.90
37594;DHT22;23441;50.856;6.076;2023-05-07T05:06:27;13.00;99.90
37594;DHT22;23441;50.856;6.076;2023-05-07T05:08:53;13.10;99.90
37594;DHT22;23441;50.856;6.076;2023-05-07T05:11:18;13.20;99.90
37594;DHT22;23441;50.856;6.076;2023-05-07T05:13:44;13.30;99.90
37594;DHT22;23441;50.856;6.076;2023-05-07T05:16:10;13.40;99.90
37594;DHT22;23441;50.856;6.076;2023-05-07T05:18:35;13.50;99.90
37594;DHT22;23441;50.856;6.076;2023-05-07T05:21:01;13.60;99.90
37594;DHT22;23441;50.856;6.076;2023-05-07T05:23:27;13.70;99.90
37594;DHT22;23441;50.856;6.076;2023-05-07T05:25:56;13.70;99.90
37594;DHT22;23441;50.856;6.076;2023-05-07T05:28:25;13.90;99.90
37594;DHT22;23441;50.856;6.076;2023-05-07T05:30:51;14.00;99.90
37594;DHT22;23441;50.856;6.076;2023-05-07T05:33:16;14.10;99.90
37594;DHT22;23441;50.856;6.076;2023-05-07T05:35:42;14.30;99.90
37594;DHT22;23441;50.856;6.076;2023-05-07T05:38:08;14.30;99.90
37594;DHT22;23441;50.856;6.076;2023-05-07T05:40:33;14.40;99.90
37594;DHT22;23441;50.856;6.076;2023-05-07T05:42:59;14.40;99.90
37594;DHT22;23441;50.856;6.076;2023-05-07T05:45:25;14.50;99.90
37594;DHT22;23441;50.856;6.076;2023-05-07T05:47:51;14.60;99.90
37594;DHT22;23441;50.856;6.076;2023-05-07T05:50:16;14.60;99.90
37594;DHT22;23441;50.856;6.076;2023-05-07T05:52:42;14.60;99.90
37594;DHT22;23441;50.856;6.076;2023-05-07T05:55:08;14.70;99.90
37594;DHT22;23441;50.856;6.076;2023-05-07T05:57:34;14.80;99.90
37594;DHT22;23441;50.856;6.076;2023-05-07T06:00:00;14.90;99.90
37594;DHT22;23441;50.856;6.076;2023-05-07T06:02:26;14.90;99.90
37594;DHT22;23441;50.856;6.076;2023-05-07T06:04:52;15.00;99.90
37594;DHT22;23441;50.856;6.076;2023-05-07T06:07:18;15.10;99.90
37594;DHT22;23441;50.856;6.076;2023-05-07T06:09:44;15.20;99.90
37594;DHT22;23441;50.856;6.076;2023-05-07T06:12:09;15.20;99.90
37594;DHT22;23441;50.856;6.076;2023-05-07T06:14:35;15.30;99.90
37594;DHT22;23441;50.856;6.076;2023-05-07T06:17:00;15.30;99.90
37594;DHT22;23441;50.856;6.076;2023-05-07T06:19:26;15.40;99.90
37594;DHT22;23441;50.856;6.076;2023-05-07T06:21:53;15.50;99.90
37594;DHT22;23441;50.856;6.076;2023-05-07T06:24:19;15.60;99.90
37594;DHT22;23441;50.856;6.076;2023-05-07T06:26:44;15.70;99.90
37594;DHT22;23441;50.856;6.076;2023-05-07T06:29:11;15.80;99.90
37594;DHT22;23441;50.856;6.076;2023-05-07T06:31:36;15.80;99.90
37594;DHT22;23441;50.856;6.076;2023-05-07T06:34:02;15.90;99.90
37594;DHT22;23441;50.856;6.076;2023-05-07T06:36:28;16.00;99.90
37594;DHT22;23441;50.856;6.076;2023-05-07T06:38:53;16.00;99.90
37594;DHT22;23441;50.856;6.076;2023-05-07T06:41:20;16.00;99.90
37594;DHT22;23441;50.856;6.076;2023-05-07T06:43:46;15.90;99.90
37594;DHT22;23441;50.856;6.076;2023-05-07T06:46:11;16.00;99.90
37594;DHT22;23441;50.856;6.076;2023-05-07T06:48:37;16.10;99.90
37594;DHT22;23441;50.856;6.076;2023-05-07T06:51:02;16.20;99.90
37594;DHT22;23441;50.856;6.076;2023-05-07T06:53:28;16.40;99.90
37594;DHT22;23441;50.856;6.076;2023-05-07T06:55:56;16.50;99.90
37594;DHT22;23441;50.856;6.076;2023-05-07T06:58:22;16.50;99.90
37594;DHT22;23441;50.856;6.076;2023-05-07T07:00:47;16.70;99.90
37594;DHT22;23441;50.856;6.076;2023-05-07T07:03:13;16.80;99.90
37594;DHT22;23441;50.856;6.076;2023-05-07T07:05:41;16.60;99.90
37594;DHT22;23441;50.856;6.076;2023-05-07T07:08:07;16.70;99.90
37594;DHT22;23441;50.856;6.076;2023-05-07T07:10:32;16.80;99.90
37594;DHT22;23441;50.856;6.076;2023-05-07T07:12:58;16.90;99.90
37594;DHT22;23441;50.856;6.076;2023-05-07T07:15:24;17.00;99.90
37594;DHT22;23441;50.856;6.076;2023-05-07T07:17:50;17.00;99.90
37594;DHT22;23441;50.856;6.076;2023-05-07T07:20:16;17.20;99.90
37594;DHT22;23441;50.856;6.076;2023-05-07T07:22:42;17.10;99.90
37594;DHT22;23441;50.856;6.076;2023-05-07T07:25:08;17.30;99.90
37594;DHT22;23441;50.856;6.076;2023-05-07T07:27:34;17.40;99.90
37594;DHT22;23441;50.856;6.076;2023-05-07T07:29:59;17.60;99.90
37594;DHT22;23441;50.856;6.076;2023-05-07T07:32:25;17.80;99.90
37594;DHT22;23441;50.856;6.076;2023-05-07T07:34:51;18.10;99.90
37594;DHT22;23441;50.856;6.076;2023-05-07T07:37:17;18.30;99.90
37594;DHT22;23441;50.856;6.076;2023-05-07T07:39:42;18.50;99.90
37594;DHT22;23441;50.856;6.076;2023-05-07T07:42:08;18.50;99.90
37594;DHT22;23441;50.856;6.076;2023-05-07T07:44:33;18.60;99.90
37594;DHT22;23441;50.856;6.076;2023-05-07T07:46:59;18.50;99.90
37594;DHT22;23441;50.856;6.076;2023-05-07T07:49:25;18.30;99.90
37594;DHT22;23441;50.856;6.076;2023-05-07T07:51:50;18.40;99.90
37594;DHT22;23441;50.856;6.076;2023-05-07T07:54:16;18.40;99.90
37594;DHT22;23441;50.856;6.076;2023-05-07T07:56:42;18.60;99.90
37594;DHT22;23441;50.856;6.076;2023-05-07T07:59:08;18.60;99.90
37594;DHT22;23441;50.856;6.076;2023-05-07T08:01:33;18.70;99.90
37594;DHT22;23441;50.856;6.076;2023-05-07T08:03:59;18.70;99.90
37594;DHT22;23441;50.856;6.076;2023-05-07T08:06:25;18.90;99.90
37594;DHT22;23441;50.856;6.076;2023-05-07T08:08:53;19.10;99.90
37594;DHT22;23441;50.856;6.076;2023-05-07T08:11:19;19.10;99.90
37594;DHT22;23441;50.856;6.076;2023-05-07T08:13:45;19.20;99.90
37594;DHT22;23441;50.856;6.076;2023-05-07T08:16:11;19.40;99.90
37594;DHT22;23441;50.856;6.076;2023-05-07T08:18:37;19.60;99.90
37594;DHT22;23441;50.856;6.076;2023-05-07T08:21:03;19.50;99.90
37594;DHT22;23441;50.856;6.076;2023-05-07T08:23:28;19.90;99.90
37594;DHT22;23441;50.856;6.076;2023-05-07T08:25:54;20.10;99.90
37594;DHT22;23441;50.856;6.076;2023-05-07T08:28:20;20.40;99.90
37594;DHT22;23441;50.856;6.076;2023-05-07T08:30:46;20.20;99.90
37594;DHT22;23441;50.856;6.076;2023-05-07T08:33:12;20.30;99.90
37594;DHT22;23441;50.856;6.076;2023-05-07T08:35:38;20.30;99.90
37594;DHT22;23441;50.856;6.076;2023-05-07T08:38:04;20.50;99.90
37594;DHT22;23441;50.856;6.076;2023-05-07T08:40:36;20.60;99.90
37594;DHT22;23441;50.856;6.076;2023-05-07T08:43:02;20.70;99.90
37594;DHT22;23441;50.856;6.076;2023-05-07T08:45:30;20.60;99.90
37594;DHT22;23441;50.856;6.076;2023-05-07T08:47:58;20.90;99.90
37594;DHT22;23441;50.856;6.076;2023-05-07T08:50:25;21.20;99.90
37594;DHT22;23441;50.856;6.076;2023-05-07T08:52:51;21.20;99.90
37594;DHT22;23441;50.856;6.076;2023-05-07T08:55:17;21.30;99.90
37594;DHT22;23441;50.856;6.076;2023-05-07T08:57:42;21.60;99.90
37594;DHT22;23441;50.856;6.076;2023-05-07T09:00:09;22.20;99.90
37594;DHT22;23441;50.856;6.076;2023-05-07T09:02:35;22.60;99.90
37594;DHT22;23441;50.856;6.076;2023-05-07T09:05:02;22.60;99.90
37594;DHT22;23441;50.856;6.076;2023-05-07T09:07:27;22.40;99.90
37594;DHT22;23441;50.856;6.076;2023-05-07T09:09:53;21.90;99.90
37594;DHT22;23441;50.856;6.076;2023-05-07T09:12:21;22.40;99.90
37594;DHT22;23441;50.856;6.076;2023-05-07T09:14:47;22.50;99.90
37594;DHT22;23441;50.856;6.076;2023-05-07T09:17:13;23.00;99.90
37594;DHT22;23441;50.856;6.076;2023-05-07T09:19:38;23.30;99.90
37594;DHT22;23441;50.856;6.076;2023-05-07T09:22:05;24.10;99.90
37594;DHT22;23441;50.856;6.076;2023-05-07T09:24:34;24.60;99.90
37594;DHT22;23441;50.856;6.076;2023-05-07T09:27:02;24.60;99.90
37594;DHT22;23441;50.856;6.076;2023-05-07T09:29:28;24.40;99.90
37594;DHT22;23441;50.856;6.076;2023-05-07T09:31:55;23.60;99.90
37594;DHT22;23441;50.856;6.076;2023-05-07T09:34:21;23.60;99.90
37594;DHT22;23441;50.856;6.076;2023-05-07T09:36:47;22.90;99.90
37594;DHT22;23441;50.856;6.076;2023-05-07T09:39:13;22.60;99.90
37594;DHT22;23441;50.856;6.076;2023-05-07T09:41:46;22.40;99.90
37594;DHT22;23441;50.856;6.076;2023-05-07T09:44:13;22.00;99.90
37594;DHT22;23441;50.856;6.076;2023-05-07T09:46:42;21.60;99.90
37594;DHT22;23441;50.856;6.076;2023-05-07T09:49:13;21.60;99.90
37594;DHT22;23441;50.856;6.076;2023-05-07T09:51:52;21.90;99.90
37594;DHT22;23441;50.856;6.076;2023-05-07T09:54:18;21.80;99.90
37594;DHT22;23441;50.856;6.076;2023-05-07T09:56:51;21.70;99.90
37594;DHT22;23441;50.856;6.076;2023-05-07T09:59:18;21.50;99.90
37594;DHT22;23441;50.856;6.076;2023-05-07T10:01:44;21.80;99.90
37594;DHT22;23441;50.856;6.076;2023-05-07T10:04:10;22.00;99.90
37594;DHT22;23441;50.856;6.076;2023-05-07T10:06:37;22.20;99.90
37594;DHT22;23441;50.856;6.076;2023-05-07T10:09:03;21.90;99.90
37594;DHT22;23441;50.856;6.076;2023-05-07T10:11:36;21.80;99.90
37594;DHT22;23441;50.856;6.076;2023-05-07T10:14:03;21.60;99.90
37594;DHT22;23441;50.856;6.076;2023-05-07T10:16:34;21.90;99.90
37594;DHT22;23441;50.856;6.076;2023-05-07T10:19:05;22.20;99.90
37594;DHT22;23441;50.856;6.076;2023-05-07T10:21:35;22.10;99.90
37594;DHT22;23441;50.856;6.076;2023-05-07T10:24:06;22.00;99.90
37594;DHT22;23441;50.856;6.076;2023-05-07T10:26:43;21.80;99.90
37594;DHT22;23441;50.856;6.076;2023-05-07T10:32:11;21.30;99.90
37594;DHT22;23441;50.856;6.076;2023-05-07T10:34:47;21.30;99.90
37594;DHT22;23441;50.856;6.076;2023-05-07T10:37:14;21.30;99.90
37594;DHT22;23441;50.856;6.076;2023-05-07T10:39:40;21.00;99.90
37594;DHT22;23441;50.856;6.076;2023-05-07T10:42:10;21.10;99.90
37594;DHT22;23441;50.856;6.076;2023-05-07T10:44:36;21.30;99.90
37594;DHT22;23441;50.856;6.076;2023-05-07T10:47:07;21.40;99.90
37594;DHT22;23441;50.856;6.076;2023-05-07T10:52:20;21.30;99.90
37594;DHT22;23441;50.856;6.076;2023-05-07T10:54:46;21.20;99.90
37594;DHT22;23441;50.856;6.076;2023-05-07T10:59:56;21.30;99.90
37594;DHT22;23441;50.856;6.076;2023-05-07T11:02:22;21.00;99.90
37594;DHT22;23441;50.856;6.076;2023-05-07T11:07:57;20.90;99.90
37594;DHT22;23441;50.856;6.076;2023-05-07T11:10:53;20.80;99.90
37594;DHT22;23441;50.856;6.076;2023-05-07T11:13:48;20.90;99.90
37594;DHT22;23441;50.856;6.076;2023-05-07T11:16:18;20.80;99.90
37594;DHT22;23441;50.856;6.076;2023-05-07T11:21:35;20.40;99.90
37594;DHT22;23441;50.856;6.076;2023-05-07T11:24:02;20.50;99.90
37594;DHT22;23441;50.856;6.076;2023-05-07T11:26:50;20.40;99.90
37594;DHT22;23441;50.856;6.076;2023-05-07T11:29:19;20.50;99.90
37594;DHT22;23441;50.856;6.076;2023-05-07T11:31:53;20.10;99.90
37594;DHT22;23441;50.856;6.076;2023-05-07T11:34:24;20.10;99.90
37594;DHT22;23441;50.856;6.076;2023-05-07T11:36:51;20.00;99.90
37594;DHT22;23441;50.856;6.076;2023-05-07T11:39:31;19.90;99.90
37594;DHT22;23441;50.856;6.076;2023-05-07T11:41:59;20.00;99.90
37594;DHT22;23441;50.856;6.076;2023-05-07T11:44:25;20.20;99.90
37594;DHT22;23441;50.856;6.076;2023-05-07T11:46:50;20.40;99.90
37594;DHT22;23441;50.856;6.076;2023-05-07T11:49:17;20.40;99.90
37594;DHT22;23441;50.856;6.076;2023-05-07T11:51:43;20.50;99.90
37594;DHT22;23441;50.856;6.076;2023-05-07T11:54:09;20.50;99.90
37594;DHT22;23441;50.856;6.076;2023-05-07T11:56:37;20.60;99.90
37594;DHT22;23441;50.856;6.076;2023-05-07T11:59:02;20.50;99.90
37594;DHT22;23441;50.856;6.076;2023-05-07T12:01:28;20.50;99.90
37594;DHT22;23441;50.856;6.076;2023-05-07T12:03:53;20.50;99.90
37594;DHT22;23441;50.856;6.076;2023-05-07T12:06:19;20.50;99.90
37594;DHT22;23441;50.856;6.076;2023-05-07T12:08:45;20.60;99.90
37594;DHT22;23441;50.856;6.076;2023-05-07T12:11:16;20.60;99.90
37594;DHT22;23441;50.856;6.076;2023-05-07T12:13:47;20.50;99.90
37594;DHT22;23441;50.856;6.076;2023-05-07T12:16:13;20.60;99.90
37594;DHT22;23441;50.856;6.076;2023-05-07T12:18:39;20.80;99.90
37594;DHT22;23441;50.856;6.076;2023-05-07T12:21:05;20.90;99.90
37594;DHT22;23441;50.856;6.076;2023-05-07T12:23:33;20.90;99.90
37594;DHT22;23441;50.856;6.076;2023-05-07T12:25:59;20.80;99.90
37594;DHT22;23441;50.856;6.076;2023-05-07T12:28:25;20.60;99.90
37594;DHT22;23441;50.856;6.076;2023-05-07T12:30:51;20.40;99.90
37594;DHT22;23441;50.856;6.076;2023-05-07T12:33:18;19.90;99.90
37594;DHT22;23441;50.856;6.076;2023-05-07T12:35:47;19.80;99.90
37594;DHT22;23441;50.856;6.076;2023-05-07T12:38:15;19.50;99.90
37594;DHT22;23441;50.856;6.076;2023-05-07T12:40:50;19.30;99.90
37594;DHT22;23441;50.856;6.076;2023-05-07T12:43:25;18.90;99.90
37594;DHT22;23441;50.856;6.076;2023-05-07T12:45:53;19.00;99.90
37594;DHT22;23441;50.856;6.076;2023-05-07T12:48:19;19.00;99.90
37594;DHT22;23441;50.856;6.076;2023-05-07T12:50:49;18.90;99.90
37594;DHT22;23441;50.856;6.076;2023-05-07T12:53:15;18.80;99.90
37594;DHT22;23441;50.856;6.076;2023-05-07T12:55:47;19.10;99.90
37594;DHT22;23441;50.856;6.076;2023-05-07T12:58:17;19.00;99.90
37594;DHT22;23441;50.856;6.076;2023-05-07T13:00:44;18.90;99.90
37594;DHT22;23441;50.856;6.076;2023-05-07T13:03:11;18.80;99.90
37594;DHT22;23441;50.856;6.076;2023-05-07T13:05:37;18.70;99.90
37594;DHT22;23441;50.856;6.076;2023-05-07T13:08:02;18.70;99.90
37594;DHT22;23441;50.856;6.076;2023-05-07T13:10:28;19.00;99.90
37594;DHT22;23441;50.856;6.076;2023-05-07T13:12:54;19.40;99.90
37594;DHT22;23441;50.856;6.076;2023-05-07T13:15:20;19.30;99.90
37594;DHT22;23441;50.856;6.076;2023-05-07T13:17:47;19.70;99.90
37594;DHT22;23441;50.856;6.076;2023-05-07T13:20:12;19.70;99.90
37594;DHT22;23441;50.856;6.076;2023-05-07T13:22:39;19.50;99.90
37594;DHT22;23441;50.856;6.076;2023-05-07T13:25:05;19.90;99.90
37594;DHT22;23441;50.856;6.076;2023-05-07T13:27:31;19.90;99.90
37594;DHT22;23441;50.856;6.076;2023-05-07T13:29:57;19.80;99.90
37594;DHT22;23441;50.856;6.076;2023-05-07T13:32:23;19.80;99.90
37594;DHT22;23441;50.856;6.076;2023-05-07T13:34:49;20.00;99.90
37594;DHT22;23441;50.856;6.076;2023-05-07T13:37:14;19.90;99.90
37594;DHT22;23441;50.856;6.076;2023-05-07T13:39:40;19.90;99.90
37594;DHT22;23441;50.856;6.076;2023-05-07T13:42:06;20.30;99.90
37594;DHT22;23441;50.856;6.076;2023-05-07T13:44:32;20.60;99.90
37594;DHT22;23441;50.856;6.076;2023-05-07T13:46:58;20.80;99.90
37594;DHT22;23441;50.856;6.076;2023-05-07T13:49:24;20.90;99.90
37594;DHT22;23441;50.856;6.076;2023-05-07T13:51:50;20.70;99.90
37594;DHT22;23441;50.856;6.076;2023-05-07T13:54:15;20.80;99.90
37594;DHT22;23441;50.856;6.076;2023-05-07T13:56:41;20.80;99.90
37594;DHT22;23441;50.856;6.076;2023-05-07T13:59:07;20.70;99.90
37594;DHT22;23441;50.856;6.076;2023-05-07T14:01:32;20.50;99.90
37594;DHT22;23441;50.856;6.076;2023-05-07T14:03:58;20.30;99.90
37594;DHT22;23441;50.856;6.076;2023-05-07T14:06:25;20.20;99.90
37594;DHT22;23441;50.856;6.076;2023-05-07T14:08:50;20.30;99.90
37594;DHT22;23441;50.856;6.076;2023-05-07T14:11:16;20.00;99.90
37594;DHT22;23441;50.856;6.076;2023-05-07T14:13:42;19.80;99.90
37594;DHT22;23441;50.856;6.076;2023-05-07T14:16:07;19.80;99.90
37594;DHT22;23441;50.856;6.076;2023-05-07T14:18:33;19.80;99.90
37594;DHT22;23441;50.856;6.076;2023-05-07T14:21:00;19.70;99.90
37594;DHT22;23441;50.856;6.076;2023-05-07T14:23:25;19.90;99.90
37594;DHT22;23441;50.856;6.076;2023-05-07T14:25:52;20.20;99.90
37594;DHT22;23441;50.856;6.076;2023-05-07T14:28:18;20.20;99.90
37594;DHT22;23441;50.856;6.076;2023-05-07T14:30:44;20.20;99.90
37594;DHT22;23441;50.856;6.076;2023-05-07T14:33:10;20.20;99.90
37594;DHT22;23441;50.856;6.076;2023-05-07T14:35:35;20.30;99.90
37594;DHT22;23441;50.856;6.076;2023-05-07T14:38:01;20.10;99.90
37594;DHT22;23441;50.856;6.076;2023-05-07T14:40:27;20.00;99.90
37594;DHT22;23441;50.856;6.076;2023-05-07T14:42:52;19.70;99.90
37594;DHT22;23441;50.856;6.076;2023-05-07T14:45:20;19.90;99.90
37594;DHT22;23441;50.856;6.076;2023-05-07T14:47:46;19.80;99.90
37594;DHT22;23441;50.856;6.076;2023-05-07T14:50:13;19.80;99.90
37594;DHT22;23441;50.856;6.076;2023-05-07T14:52:38;19.70;99.90
37594;DHT22;23441;50.856;6.076;2023-05-07T14:55:04;19.90;99.90
37594;DHT22;23441;50.856;6.076;2023-05-07T14:57:31;19.90;99.90
37594;DHT22;23441;50.856;6.076;2023-05-07T15:00:03;20.00;99.90
37594;DHT22;23441;50.856;6.076;2023-05-07T15:02:30;20.00;99.90
37594;DHT22;23441;50.856;6.076;2023-05-07T15:04:55;19.90;99.90
37594;DHT22;23441;50.856;6.076;2023-05-07T15:07:21;20.00;99.90
37594;DHT22;23441;50.856;6.076;2023-05-07T15:09:47;19.90;99.90
37594;DHT22;23441;50.856;6.076;2023-05-07T15:12:13;20.00;99.90
37594;DHT22;23441;50.856;6.076;2023-05-07T15:14:39;20.00;99.90
37594;DHT22;23441;50.856;6.076;2023-05-07T15:17:04;19.80;99.90
37594;DHT22;23441;50.856;6.076;2023-05-07T15:19:30;19.90;99.90
37594;DHT22;23441;50.856;6.076;2023-05-07T15:21:59;19.90;99.90
37594;DHT22;23441;50.856;6.076;2023-05-07T15:24:28;20.00;99.90
37594;DHT22;23441;50.856;6.076;2023-05-07T15:26:54;20.10;99.90
37594;DHT22;23441;50.856;6.076;2023-05-07T15:29:20;20.00;99.90
37594;DHT22;23441;50.856;6.076;2023-05-07T15:31:46;20.00;99.90
37594;DHT22;23441;50.856;6.076;2023-05-07T15:34:12;19.90;99.90
37594;DHT22;23441;50.856;6.076;2023-05-07T15:36:40;19.70;99.90
37594;DHT22;23441;50.856;6.076;2023-05-07T15:39:06;19.50;99.90
37594;DHT22;23441;50.856;6.076;2023-05-07T15:41:32;19.50;99.90